Time,TemperatureF,DewpointF,PressureIn,WindDirection,WindDirectionDegrees,WindSpeedMPH,WindSpeedGustMPH,Humidity,HourlyPrecipIn,Conditions,Clouds,dailyrainin,SoftwareType,DateUTC
2013-12-20 00:01:00,38.1,30.9,30.09,WSW,240,0.0,0.0,75,0.00,,,0.00,JWX,2013-12-20 05:01:00,
2013-12-20 00:06:00,37.8,30.6,30.10,WSW,240,0.0,0.0,75,0.00,,,0.00,JWX,2013-12-20 05:06:00,
2013-12-20 00:11:00,37.2,30.4,30.09,WSW,240,0.0,0.0,76,0.00,,,0.00,JWX,2013-12-20 05:11:00,
2013-12-20 00:16:00,36.8,30.0,30.09,WSW,240,0.0,0.0,76,0.00,,,0.00,JWX,2013-12-20 05:16:00,
2013-12-20 00:21:00,36.4,30.1,30.09,WSW,240,0.0,0.0,78,0.00,,,0.00,JWX,2013-12-20 05:21:00,
2013-12-20 00:26:00,36.3,30.4,30.09,WSW,240,0.0,0.0,79,0.00,,,0.00,JWX,2013-12-20 05:26:00,
2013-12-20 00:31:00,36.3,30.4,30.09,WSW,240,0.0,0.0,79,0.00,,,0.00,JWX,2013-12-20 05:31:00,
2013-12-20 00:36:00,36.2,30.3,30.09,WSW,240,0.0,0.0,79,0.00,,,0.00,JWX,2013-12-20 05:36:00,
2013-12-20 00:41:00,36.2,30.3,30.09,WSW,240,0.0,0.0,79,0.00,,,0.00,JWX,2013-12-20 05:41:00,
2013-12-20 00:46:00,36.1,30.3,30.09,WSW,240,0.0,0.0,79,0.00,,,0.00,JWX,2013-12-20 05:46:00,
2013-12-20 00:47:00,36.1,30.3,30.09,WSW,240,0.0,0.0,79,0.00,,,0.00,JWX,2013-12-20 05:47:00,
2013-12-20 00:52:00,36.1,30.3,30.09,WSW,240,0.0,0.0,79,0.00,,,0.00,JWX,2013-12-20 05:52:00,
2013-12-20 00:57:00,36.2,30.3,30.08,WSW,240,0.0,0.0,79,0.00,,,0.00,JWX,2013-12-20 05:57:00,
2013-12-20 01:02:00,36.4,30.8,30.08,WSW,240,0.0,0.0,80,0.00,,,0.00,JWX,2013-12-20 06:02:00,
2013-12-20 01:07:00,36.5,30.9,30.08,WSW,240,0.0,0.0,80,0.00,,,0.00,JWX,2013-12-20 06:07:00,
2013-12-20 01:12:00,36.5,30.9,30.08,WSW,240,0.0,0.0,80,0.00,,,0.00,JWX,2013-12-20 06:12:00,
2013-12-20 01:17:00,36.7,31.1,30.08,WSW,240,0.0,0.0,80,0.00,,,0.00,JWX,2013-12-20 06:17:00,
2013-12-20 01:22:00,37.0,31.1,30.08,WSW,240,0.0,0.0,79,0.00,,,0.00,JWX,2013-12-20 06:22:00,
2013-12-20 01:27:00,37.2,31.3,30.08,WSW,240,0.0,0.0,79,0.00,,,0.00,JWX,2013-12-20 06:27:00,
2013-12-20 01:32:00,37.3,31.0,30.08,WSW,240,0.0,0.0,78,0.00,,,0.00,JWX,2013-12-20 06:32:00,
2013-12-20 01:37:00,37.0,30.5,30.08,WSW,240,0.0,0.0,77,0.00,,,0.00,JWX,2013-12-20 06:37:00,
2013-12-20 01:42:00,36.7,30.2,30.08,WSW,240,0.0,0.0,77,0.00,,,0.00,JWX,2013-12-20 06:42:00,
2013-12-20 01:47:00,36.5,30.3,30.08,WSW,240,0.0,0.0,78,0.00,,,0.00,JWX,2013-12-20 06:47:00,
2013-12-20 01:52:00,36.3,30.1,30.08,WSW,240,0.0,0.0,78,0.00,,,0.00,JWX,2013-12-20 06:52:00,
2013-12-20 01:57:00,36.2,30.0,30.08,WSW,240,0.0,3.0,78,0.00,,,0.00,JWX,2013-12-20 06:57:00,
2013-12-20 02:02:00,36.0,30.1,30.08,WSW,240,1.0,0.0,79,0.00,,,0.00,JWX,2013-12-20 07:02:00,
2013-12-20 02:07:00,36.0,30.1,30.08,WSW,240,1.0,3.0,79,0.00,,,0.00,JWX,2013-12-20 07:07:00,
2013-12-20 02:12:00,35.9,30.1,30.08,WSW,240,1.0,4.0,79,0.00,,,0.00,JWX,2013-12-20 07:12:00,
2013-12-20 02:17:00,35.9,30.4,30.09,WSW,240,1.0,0.0,80,0.00,,,0.00,JWX,2013-12-20 07:17:00,
2013-12-20 02:22:00,35.9,30.4,30.08,WSW,240,1.0,0.0,80,0.00,,,0.00,JWX,2013-12-20 07:22:00,
2013-12-20 02:27:00,36.5,30.9,30.08,WSW,240,1.0,0.0,80,0.00,,,0.00,JWX,2013-12-20 07:27:00,
2013-12-20 02:32:00,37.3,31.0,30.08,WSW,240,0.0,0.0,78,0.00,,,0.00,JWX,2013-12-20 07:32:00,
2013-12-20 02:37:00,38.0,31.1,30.08,WSW,240,0.0,0.0,76,0.00,,,0.00,JWX,2013-12-20 07:37:00,
2013-12-20 02:42:00,38.3,31.1,30.08,WSW,240,0.0,0.0,75,0.00,,,0.00,JWX,2013-12-20 07:42:00,
2013-12-20 02:47:00,38.2,30.9,30.07,WSW,240,0.0,0.0,75,0.00,,,0.00,JWX,2013-12-20 07:47:00,
2013-12-20 02:52:00,38.2,31.2,30.08,WSW,240,0.0,0.0,76,0.00,,,0.00,JWX,2013-12-20 07:52:00,
2013-12-20 02:57:00,38.0,31.1,30.07,WSW,240,0.0,0.0,76,-99.99,,,-99.99,JWX,2013-12-20 07:57:00,
2013-12-20 03:02:00,38.0,31.1,30.08,WSW,240,0.0,0.0,76,-99.99,,,-99.99,JWX,2013-12-20 08:02:00,
2013-12-20 03:07:00,37.9,31.1,30.07,WSW,240,0.0,0.0,76,-99.99,,,-99.99,JWX,2013-12-20 08:07:00,
2013-12-20 03:13:00,37.9,31.4,30.06,WSW,240,0.0,0.0,77,-99.99,,,-99.99,JWX,2013-12-20 08:13:00,
2013-12-20 03:18:00,37.9,31.1,30.06,WSW,240,0.0,0.0,76,-99.99,,,-99.99,JWX,2013-12-20 08:18:00,
2013-12-20 03:23:00,38.0,31.4,30.07,WSW,240,0.0,0.0,77,-99.99,,,-99.99,JWX,2013-12-20 08:23:00,
2013-12-20 03:28:00,38.2,31.2,30.06,WSW,240,0.0,0.0,76,-99.99,,,-99.99,JWX,2013-12-20 08:28:00,
2013-12-20 03:33:00,38.3,31.1,30.06,WSW,240,0.0,0.0,75,-99.99,,,-99.99,JWX,2013-12-20 08:33:00,
2013-12-20 03:38:00,38.1,31.2,30.06,WSW,240,0.0,1.0,76,-99.99,,,-99.99,JWX,2013-12-20 08:38:00,
2013-12-20 03:43:00,37.7,30.9,30.07,WSW,240,0.0,0.0,76,-99.99,,,-99.99,JWX,2013-12-20 08:43:00,
2013-12-20 03:48:00,37.7,31.2,30.06,WSW,240,0.0,0.0,77,-99.99,,,-99.99,JWX,2013-12-20 08:48:00,
2013-12-20 03:53:00,37.8,30.6,30.06,WSW,240,0.0,0.0,75,-99.99,,,-99.99,JWX,2013-12-20 08:53:00,
2013-12-20 03:58:00,38.2,30.2,30.06,WSW,240,0.0,1.0,73,-99.99,,,-99.99,JWX,2013-12-20 08:58:00,
2013-12-20 04:03:00,39.0,30.4,30.06,WSW,240,0.0,3.0,71,-99.99,,,-99.99,JWX,2013-12-20 09:03:00,
2013-12-20 04:08:00,39.9,30.9,30.06,WSW,240,0.0,1.0,70,-99.99,,,-99.99,JWX,2013-12-20 09:08:00,
2013-12-20 04:13:00,40.2,31.3,30.06,WSW,240,0.0,0.0,70,-99.99,,,-99.99,JWX,2013-12-20 09:13:00,
2013-12-20 04:18:00,40.2,30.6,30.06,WSW,240,0.0,2.0,68,-99.99,,,-99.99,JWX,2013-12-20 09:18:00,
2013-12-20 04:23:00,40.2,30.2,30.06,WSW,240,0.0,3.0,67,-99.99,,,-99.99,JWX,2013-12-20 09:23:00,
2013-12-20 04:28:00,40.4,30.0,30.06,WSW,240,0.0,2.0,66,-99.99,,,-99.99,JWX,2013-12-20 09:28:00,
2013-12-20 04:33:00,40.8,30.4,30.06,WSW,240,0.0,1.0,66,-99.99,,,-99.99,JWX,2013-12-20 09:33:00,
2013-12-20 04:38:00,41.3,30.9,30.06,WSW,240,0.0,4.0,66,-99.99,,,-99.99,JWX,2013-12-20 09:38:00,
2013-12-20 04:43:00,41.2,30.7,30.06,WSW,240,0.0,4.0,66,-99.99,,,-99.99,JWX,2013-12-20 09:43:00,
2013-12-20 04:48:00,40.9,31.1,30.06,WSW,240,1.0,5.0,68,-99.99,,,-99.99,JWX,2013-12-20 09:48:00,
2013-12-20 04:53:00,40.6,30.2,30.06,WSW,240,1.0,2.0,66,-99.99,,,-99.99,JWX,2013-12-20 09:53:00,
2013-12-20 04:58:00,40.8,30.4,30.05,WSW,240,0.0,1.0,66,-99.99,,,-99.99,JWX,2013-12-20 09:58:00,
2013-12-20 05:03:00,41.0,30.1,30.05,WSW,240,0.0,1.0,65,-99.99,,,-99.99,JWX,2013-12-20 10:03:00,
2013-12-20 05:08:00,40.2,31.3,30.05,WSW,240,1.0,3.0,70,-99.99,,,-99.99,JWX,2013-12-20 10:08:00,
2013-12-20 05:13:00,38.8,30.9,30.05,WSW,240,2.0,3.0,73,-99.99,,,-99.99,JWX,2013-12-20 10:13:00,
2013-12-20 05:18:00,38.0,30.1,30.04,WSW,240,1.0,1.0,73,-99.99,,,-99.99,JWX,2013-12-20 10:18:00,
2013-12-20 05:23:00,38.2,29.9,30.04,WSW,240,0.0,1.0,72,-99.99,,,-99.99,JWX,2013-12-20 10:23:00,
2013-12-20 05:28:00,38.7,30.1,30.04,WSW,240,0.0,3.0,71,-99.99,,,-99.99,JWX,2013-12-20 10:28:00,
2013-12-20 05:33:00,39.0,29.7,30.04,WSW,240,0.0,1.0,69,-99.99,,,-99.99,JWX,2013-12-20 10:33:00,
2013-12-20 05:38:00,39.6,29.9,30.04,WSW,240,0.0,0.0,68,-99.99,,,-99.99,JWX,2013-12-20 10:38:00,
2013-12-20 05:43:00,40.0,29.9,30.04,WSW,240,0.0,0.0,67,-99.99,,,-99.99,JWX,2013-12-20 10:43:00,
2013-12-20 05:48:00,40.4,30.0,30.04,WSW,240,0.0,2.0,66,-99.99,,,-99.99,JWX,2013-12-20 10:48:00,
2013-12-20 05:53:00,40.6,29.8,30.04,WSW,240,0.0,4.0,65,-99.99,,,-99.99,JWX,2013-12-20 10:53:00,
2013-12-20 05:58:00,40.6,30.9,30.04,WSW,240,0.0,1.0,68,-99.99,,,-99.99,JWX,2013-12-20 10:58:00,
2013-12-20 06:03:00,40.1,31.1,30.04,WSW,240,0.0,1.0,70,-99.99,,,-99.99,JWX,2013-12-20 11:03:00,
2013-12-20 06:08:00,39.5,30.9,30.04,WSW,240,0.0,1.0,71,-99.99,,,-99.99,JWX,2013-12-20 11:08:00,
2013-12-20 06:13:00,38.8,30.9,30.04,WSW,240,0.0,3.0,73,-99.99,,,-99.99,JWX,2013-12-20 11:13:00,
2013-12-20 06:18:00,38.1,30.9,30.04,WSW,240,1.0,3.0,75,-99.99,,,-99.99,JWX,2013-12-20 11:18:00,
2013-12-20 06:23:00,37.4,30.9,30.04,WSW,240,1.0,3.0,77,-99.99,,,-99.99,JWX,2013-12-20 11:23:00,
2013-12-20 06:28:00,36.9,30.7,30.04,WSW,240,1.0,2.0,78,-99.99,,,-99.99,JWX,2013-12-20 11:28:00,
2013-12-20 06:33:00,36.4,30.4,30.04,WSW,240,1.0,3.0,79,-99.99,,,-99.99,JWX,2013-12-20 11:33:00,
2013-12-20 06:38:00,36.0,30.4,30.04,WSW,240,1.0,1.0,80,-99.99,,,-99.99,JWX,2013-12-20 11:38:00,
2013-12-20 06:43:00,35.7,30.5,30.04,WSW,240,0.0,3.0,81,-99.99,,,-99.99,JWX,2013-12-20 11:43:00,
2013-12-20 06:48:00,35.8,30.8,30.04,WSW,240,0.0,0.0,82,-99.99,,,-99.99,JWX,2013-12-20 11:48:00,
2013-12-20 06:53:00,36.1,30.9,30.04,WSW,240,0.0,0.0,81,-99.99,,,-99.99,JWX,2013-12-20 11:53:00,
2013-12-20 06:58:00,36.2,30.9,30.04,WSW,240,0.0,0.0,81,-99.99,,,-99.99,JWX,2013-12-20 11:58:00,
2013-12-20 07:03:00,36.4,30.8,30.04,WSW,240,0.0,0.0,80,-99.99,,,-99.99,JWX,2013-12-20 12:03:00,
2013-12-20 07:08:00,36.5,30.9,30.03,WSW,240,0.0,0.0,80,-99.99,,,-99.99,JWX,2013-12-20 12:08:00,
2013-12-20 07:13:00,36.8,31.0,30.03,WSW,240,0.0,0.0,79,-99.99,,,-99.99,JWX,2013-12-20 12:13:00,
2013-12-20 07:18:00,37.0,30.8,30.03,WSW,240,0.0,0.0,78,-99.99,,,-99.99,JWX,2013-12-20 12:18:00,
2013-12-20 07:23:00,37.4,30.9,30.03,WSW,240,0.0,1.0,77,-99.99,,,-99.99,JWX,2013-12-20 12:23:00,
2013-12-20 07:28:00,37.8,30.9,30.03,WSW,240,0.0,0.0,76,-99.99,,,-99.99,JWX,2013-12-20 12:28:00,
2013-12-20 07:33:00,38.0,31.1,30.04,WSW,240,0.0,0.0,76,-99.99,,,-99.99,JWX,2013-12-20 12:33:00,
2013-12-20 07:38:00,38.0,30.7,30.04,WSW,240,0.0,1.0,75,-99.99,,,-99.99,JWX,2013-12-20 12:38:00,
2013-12-20 07:43:00,38.2,29.9,30.04,WSW,240,0.0,3.0,72,-99.99,,,-99.99,JWX,2013-12-20 12:43:00,
2013-12-20 07:48:00,38.7,30.8,30.03,WSW,240,0.0,3.0,73,-99.99,,,-99.99,JWX,2013-12-20 12:48:00,
2013-12-20 07:53:00,38.6,31.1,30.03,WSW,240,1.0,4.0,74,-99.99,,,-99.99,JWX,2013-12-20 12:53:00,
2013-12-20 07:58:00,38.3,31.1,30.03,WSW,240,1.0,1.0,75,-99.99,,,-99.99,JWX,2013-12-20 12:58:00,
2013-12-20 08:03:00,38.2,30.9,30.03,WSW,240,0.0,0.0,75,-99.99,,,-99.99,JWX,2013-12-20 13:03:00,
2013-12-20 08:08:00,38.0,30.7,30.03,WSW,240,0.0,0.0,75,-99.99,,,-99.99,JWX,2013-12-20 13:08:00,
2013-12-20 08:13:00,38.0,31.1,30.03,WSW,240,0.0,0.0,76,-99.99,,,-99.99,JWX,2013-12-20 13:13:00,
2013-12-20 08:18:00,38.0,31.1,30.03,WSW,240,0.0,0.0,76,-99.99,,,-99.99,JWX,2013-12-20 13:18:00,
2013-12-20 08:23:00,38.0,30.7,30.03,WSW,240,0.0,0.0,75,-99.99,,,-99.99,JWX,2013-12-20 13:23:00,
2013-12-20 08:28:00,38.2,30.6,30.03,WSW,240,0.0,0.0,74,-99.99,,,-99.99,JWX,2013-12-20 13:28:00,
2013-12-20 08:33:00,38.6,30.8,30.03,WSW,240,0.0,3.0,73,-99.99,,,-99.99,JWX,2013-12-20 13:33:00,
2013-12-20 08:38:00,39.0,31.8,30.03,WSW,240,0.0,3.0,75,-99.99,,,-99.99,JWX,2013-12-20 13:38:00,
2013-12-20 08:43:00,38.8,31.6,30.03,WSW,240,0.0,3.0,75,-99.99,,,-99.99,JWX,2013-12-20 13:43:00,
2013-12-20 08:48:00,39.1,30.4,30.03,WSW,240,1.0,4.0,71,-99.99,,,-99.99,JWX,2013-12-20 13:48:00,
2013-12-20 08:53:00,40.0,30.2,30.03,WSW,240,1.0,5.0,68,-99.99,,,-99.99,JWX,2013-12-20 13:53:00,
2013-12-20 08:58:00,41.3,30.9,30.02,SW,229,1.0,5.0,66,-99.99,,,-99.99,JWX,2013-12-20 13:58:00,
2013-12-20 09:03:00,42.5,30.7,30.03,SW,221,1.0,6.0,63,-99.99,,,-99.99,JWX,2013-12-20 14:03:00,
2013-12-20 09:08:00,43.7,32.7,30.03,SW,226,1.0,4.0,65,-99.99,,,-99.99,JWX,2013-12-20 14:08:00,
2013-12-20 09:13:00,42.2,32.1,30.03,WSW,247,2.0,4.0,67,-99.99,,,-99.99,JWX,2013-12-20 14:13:00,
2013-12-20 09:18:00,40.5,31.8,30.03,WSW,251,2.0,3.0,71,-99.99,,,-99.99,JWX,2013-12-20 14:18:00,
2013-12-20 09:23:00,40.1,30.8,30.03,WSW,251,1.0,3.0,69,-99.99,,,-99.99,JWX,2013-12-20 14:23:00,
2013-12-20 09:28:00,40.7,30.2,30.03,WSW,251,0.0,2.0,66,-99.99,,,-99.99,JWX,2013-12-20 14:28:00,
2013-12-20 09:33:00,41.7,30.5,30.03,WSW,250,0.0,4.0,64,-99.99,,,-99.99,JWX,2013-12-20 14:33:00,
2013-12-20 09:38:00,42.7,30.1,30.02,WSW,249,0.0,6.0,61,-99.99,,,-99.99,JWX,2013-12-20 14:38:00,
2013-12-20 09:43:00,43.6,30.6,30.02,WSW,244,1.0,5.0,60,-99.99,,,-99.99,JWX,2013-12-20 14:43:00,
2013-12-20 09:48:00,44.4,31.0,30.02,WSW,244,1.0,4.0,59,-99.99,,,-99.99,JWX,2013-12-20 14:48:00,
2013-12-20 09:53:00,45.2,30.8,30.02,WSW,244,1.0,5.0,57,-99.99,,,-99.99,JWX,2013-12-20 14:53:00,
2013-12-20 09:58:00,46.0,31.2,30.03,WSW,238,1.0,5.0,56,-99.99,,,-99.99,JWX,2013-12-20 14:58:00,
2013-12-20 10:03:00,46.9,31.2,30.03,WSW,237,1.0,7.0,54,-99.99,,,-99.99,JWX,2013-12-20 15:03:00,
2013-12-20 10:08:00,47.6,30.9,30.03,WSW,237,1.0,6.0,52,-99.99,,,-99.99,JWX,2013-12-20 15:08:00,
2013-12-20 10:13:00,48.0,30.8,30.03,WSW,237,1.0,6.0,51,-99.99,,,-99.99,JWX,2013-12-20 15:13:00,
2013-12-20 10:18:00,48.2,30.9,30.03,WSW,237,1.0,3.0,51,-99.99,,,-99.99,JWX,2013-12-20 15:18:00,
2013-12-20 10:23:00,48.2,30.4,30.03,WSW,237,0.0,5.0,50,-99.99,,,-99.99,JWX,2013-12-20 15:23:00,
2013-12-20 10:28:00,48.1,30.3,30.03,WSW,237,1.0,6.0,50,-99.99,,,-99.99,JWX,2013-12-20 15:28:00,
2013-12-20 10:33:00,48.0,30.3,30.02,WSW,237,1.0,5.0,50,-99.99,,,-99.99,JWX,2013-12-20 15:33:00,
2013-12-20 10:38:00,48.0,30.3,30.02,WSW,237,1.0,4.0,50,-99.99,,,-99.99,JWX,2013-12-20 15:38:00,
2013-12-20 10:43:00,47.9,30.6,30.02,WSW,237,1.0,5.0,51,-99.99,,,-99.99,JWX,2013-12-20 15:43:00,
2013-12-20 10:48:00,47.8,30.6,30.02,SW,236,1.0,5.0,51,-99.99,,,-99.99,JWX,2013-12-20 15:48:00,
2013-12-20 10:53:00,48.0,30.8,30.03,SW,236,1.0,5.0,51,-99.99,,,-99.99,JWX,2013-12-20 15:53:00,
2013-12-20 10:58:00,48.1,30.8,30.02,SW,236,1.0,5.0,51,-99.99,,,-99.99,JWX,2013-12-20 15:58:00,
2013-12-20 11:03:00,48.2,30.9,30.02,WSW,237,1.0,5.0,51,-99.99,,,-99.99,JWX,2013-12-20 16:03:00,
2013-12-20 11:08:00,48.2,31.4,30.02,WSW,237,2.0,6.0,52,-99.99,,,-99.99,JWX,2013-12-20 16:08:00,
2013-12-20 11:13:00,48.3,31.6,30.02,WSW,238,2.0,5.0,52,-99.99,,,-99.99,JWX,2013-12-20 16:13:00,
2013-12-20 11:18:00,48.3,31.6,30.01,WSW,238,1.0,4.0,52,-99.99,,,-99.99,JWX,2013-12-20 16:18:00,
2013-12-20 11:23:00,48.3,32.5,30.01,WSW,238,1.0,6.0,54,-99.99,,,-99.99,JWX,2013-12-20 16:23:00,
2013-12-20 11:28:00,48.1,32.6,30.01,WSW,239,1.0,0.0,55,-99.99,,,-99.99,JWX,2013-12-20 16:28:00,
2013-12-20 11:33:00,47.6,32.7,30.01,WSW,239,0.0,3.0,56,-99.99,,,-99.99,JWX,2013-12-20 16:33:00,
2013-12-20 11:38:00,46.8,32.8,30.01,WSW,239,0.0,5.0,58,-99.99,,,-99.99,JWX,2013-12-20 16:38:00,
2013-12-20 11:43:00,46.1,32.9,30.01,WSW,240,1.0,3.0,60,-99.99,,,-99.99,JWX,2013-12-20 16:43:00,
2013-12-20 11:48:00,45.5,32.8,30.01,WSW,240,0.0,0.0,61,-99.99,,,-99.99,JWX,2013-12-20 16:48:00,
2013-12-20 11:53:00,45.1,32.1,30.00,WSW,240,1.0,4.0,60,-99.99,,,-99.99,JWX,2013-12-20 16:53:00,
2013-12-20 11:58:00,45.1,32.1,30.01,WSW,240,1.0,3.0,60,-99.99,,,-99.99,JWX,2013-12-20 16:58:00,
2013-12-20 12:03:00,45.4,31.8,30.00,WSW,240,1.0,1.0,59,-99.99,,,-99.99,JWX,2013-12-20 17:03:00,
2013-12-20 12:08:00,45.9,33.2,30.00,WSW,240,0.0,0.0,61,-99.99,,,-99.99,JWX,2013-12-20 17:08:00,
2013-12-20 12:13:00,46.3,33.5,30.00,WSW,240,0.0,5.0,61,-99.99,,,-99.99,JWX,2013-12-20 17:13:00,
2013-12-20 12:18:00,46.7,34.4,30.00,WSW,240,0.0,0.0,62,-99.99,,,-99.99,JWX,2013-12-20 17:18:00,
2013-12-20 12:23:00,46.9,32.9,29.99,WSW,242,1.0,6.0,58,-99.99,,,-99.99,JWX,2013-12-20 17:23:00,
2013-12-20 12:28:00,47.2,32.7,29.99,WSW,243,1.0,6.0,57,-99.99,,,-99.99,JWX,2013-12-20 17:28:00,
2013-12-20 12:33:00,47.6,33.2,29.99,WSW,246,1.0,7.0,57,-99.99,,,-99.99,JWX,2013-12-20 17:33:00,
2013-12-20 12:38:00,47.7,32.7,29.99,WSW,253,1.0,7.0,56,-99.99,,,-99.99,JWX,2013-12-20 17:38:00,
2013-12-20 12:43:00,47.9,32.9,29.99,WSW,244,2.0,9.0,56,-99.99,,,-99.99,JWX,2013-12-20 17:43:00,
2013-12-20 12:48:00,48.0,33.1,29.98,WSW,245,2.0,6.0,56,-99.99,,,-99.99,JWX,2013-12-20 17:48:00,
2013-12-20 12:53:00,48.2,33.2,29.98,SW,233,2.0,6.0,56,-99.99,,,-99.99,JWX,2013-12-20 17:53:00,
2013-12-20 12:58:00,48.4,33.0,29.98,SW,224,2.0,8.0,55,-99.99,,,-99.99,JWX,2013-12-20 17:58:00,
2013-12-20 13:03:00,48.8,33.3,29.98,WSW,238,2.0,7.0,55,-99.99,,,-99.99,JWX,2013-12-20 18:03:00,
2013-12-20 13:08:00,49.1,33.2,29.98,WSW,252,2.0,9.0,54,-99.99,,,-99.99,JWX,2013-12-20 18:08:00,
2013-12-20 13:13:00,49.5,33.5,29.98,SW,231,3.0,10.0,54,-99.99,,,-99.99,JWX,2013-12-20 18:13:00,
2013-12-20 13:18:00,49.8,33.4,29.98,WSW,249,3.0,10.0,53,-99.99,,,-99.99,JWX,2013-12-20 18:18:00,
2013-12-20 13:23:00,50.1,33.2,29.97,WSW,249,4.0,12.0,52,-99.99,,,-99.99,JWX,2013-12-20 18:23:00,
2013-12-20 13:28:00,50.3,33.4,29.97,WSW,249,4.0,12.0,52,-99.99,,,-99.99,JWX,2013-12-20 18:28:00,
2013-12-20 13:33:00,50.4,33.4,29.97,WSW,248,3.0,7.0,52,-99.99,,,-99.99,JWX,2013-12-20 18:33:00,
2013-12-20 13:38:00,50.5,33.6,29.96,SW,228,2.0,6.0,52,-99.99,,,-99.99,JWX,2013-12-20 18:38:00,
2013-12-20 13:43:00,50.6,33.1,29.96,WSW,251,2.0,5.0,51,-99.99,,,-99.99,JWX,2013-12-20 18:43:00,
2013-12-20 13:48:00,50.6,33.1,29.97,West,263,2.0,6.0,51,-99.99,,,-99.99,JWX,2013-12-20 18:48:00,
2013-12-20 13:53:00,50.5,33.1,29.96,WSW,253,2.0,6.0,51,-99.99,,,-99.99,JWX,2013-12-20 18:53:00,
2013-12-20 13:58:00,50.5,33.1,29.96,WSW,252,2.0,6.0,51,-99.99,,,-99.99,JWX,2013-12-20 18:58:00,
2013-12-20 14:03:00,50.5,33.1,29.96,WSW,247,2.0,7.0,51,-99.99,,,-99.99,JWX,2013-12-20 19:03:00,
2013-12-20 14:08:00,50.6,33.1,29.96,SW,231,2.0,7.0,51,-99.99,,,-99.99,JWX,2013-12-20 19:08:00,
2013-12-20 14:13:00,50.7,33.3,29.96,SW,226,3.0,6.0,51,-99.99,,,-99.99,JWX,2013-12-20 19:13:00,
2013-12-20 14:18:00,50.6,33.1,29.96,SW,236,3.0,7.0,51,-99.99,,,-99.99,JWX,2013-12-20 19:18:00,
2013-12-20 14:23:00,50.5,33.1,29.96,WSW,240,2.0,6.0,51,-99.99,,,-99.99,JWX,2013-12-20 19:23:00,
2013-12-20 14:28:00,50.4,32.9,29.96,WSW,252,2.0,5.0,51,-99.99,,,-99.99,JWX,2013-12-20 19:28:00,
2013-12-20 14:33:00,50.2,32.8,29.96,West,267,2.0,7.0,51,-99.99,,,-99.99,JWX,2013-12-20 19:33:00,
2013-12-20 14:37:00,50.0,33.1,29.96,WSW,246,2.0,2.0,52,-99.99,,,-99.99,JWX,2013-12-20 19:37:00,
2013-12-20 14:43:00,49.8,32.9,29.95,WSW,244,1.0,4.0,52,-99.99,,,-99.99,JWX,2013-12-20 19:43:00,
2013-12-20 14:48:00,49.8,32.9,29.95,SW,236,1.0,0.0,52,-99.99,,,-99.99,JWX,2013-12-20 19:48:00,
2013-12-20 14:53:00,49.9,32.9,29.96,SW,233,2.0,6.0,52,-99.99,,,-99.99,JWX,2013-12-20 19:53:00,
2013-12-20 14:58:00,50.0,33.1,29.96,WSW,244,2.0,9.0,52,-99.99,,,-99.99,JWX,2013-12-20 19:58:00,
2013-12-20 15:03:00,50.1,33.2,29.96,SW,235,2.0,7.0,52,-99.99,,,-99.99,JWX,2013-12-20 20:03:00,
2013-12-20 15:08:00,50.2,33.2,29.96,SW,234,2.0,7.0,52,-99.99,,,-99.99,JWX,2013-12-20 20:08:00,
2013-12-20 15:13:00,50.3,33.4,29.96,WSW,239,2.0,7.0,52,-99.99,,,-99.99,JWX,2013-12-20 20:13:00,
2013-12-20 15:18:00,50.4,33.4,29.96,SW,231,2.0,6.0,52,-99.99,,,-99.99,JWX,2013-12-20 20:18:00,
2013-12-20 15:23:00,50.3,33.4,29.95,SW,227,3.0,7.0,52,-99.99,,,-99.99,JWX,2013-12-20 20:23:00,
2013-12-20 15:28:00,50.2,33.7,29.95,SW,216,2.0,9.0,53,-99.99,,,-99.99,JWX,2013-12-20 20:28:00,
2013-12-20 15:33:00,50.0,33.5,29.95,SSW,212,2.0,10.0,53,-99.99,,,-99.99,JWX,2013-12-20 20:33:00,
2013-12-20 15:38:00,49.9,33.8,29.96,SW,215,3.0,13.0,54,-99.99,,,-99.99,JWX,2013-12-20 20:38:00,
2013-12-20 15:43:00,49.9,33.8,29.96,SW,219,3.0,11.0,54,-99.99,,,-99.99,JWX,2013-12-20 20:43:00,
2013-12-20 15:48:00,49.8,34.3,29.96,SW,225,2.0,6.0,55,-99.99,,,-99.99,JWX,2013-12-20 20:48:00,
2013-12-20 15:53:00,49.6,34.1,29.96,SW,215,1.0,9.0,55,-99.99,,,-99.99,JWX,2013-12-20 20:53:00,
2013-12-20 15:58:00,49.5,34.0,29.96,SSW,213,2.0,11.0,55,-99.99,,,-99.99,JWX,2013-12-20 20:58:00,
2013-12-20 16:03:00,49.4,34.0,29.96,SW,217,2.0,6.0,55,-99.99,,,-99.99,JWX,2013-12-20 21:03:00,
2013-12-20 16:08:00,49.4,34.0,29.97,SW,221,3.0,6.0,55,-99.99,,,-99.99,JWX,2013-12-20 21:08:00,
2013-12-20 16:13:00,49.5,34.0,29.97,SW,232,2.0,11.0,55,-99.99,,,-99.99,JWX,2013-12-20 21:13:00,
2013-12-20 16:18:00,49.4,34.4,29.97,WSW,239,2.0,5.0,56,-99.99,,,-99.99,JWX,2013-12-20 21:18:00,
2013-12-20 16:23:00,49.2,34.3,29.96,SSW,212,2.0,7.0,56,-99.99,,,-99.99,JWX,2013-12-20 21:23:00,
2013-12-20 16:28:00,49.1,34.5,29.96,SSW,208,1.0,5.0,57,-99.99,,,-99.99,JWX,2013-12-20 21:28:00,
2013-12-20 16:33:00,48.9,34.4,29.96,SSW,212,1.0,4.0,57,-99.99,,,-99.99,JWX,2013-12-20 21:33:00,
2013-12-20 16:38:00,48.7,34.2,29.96,SW,217,1.0,6.0,57,-99.99,,,-99.99,JWX,2013-12-20 21:38:00,
2013-12-20 16:43:00,48.6,34.0,29.96,SW,218,1.0,6.0,57,-99.99,,,-99.99,JWX,2013-12-20 21:43:00,
2013-12-20 16:48:00,48.5,34.0,29.96,SW,217,1.0,10.0,57,-99.99,,,-99.99,JWX,2013-12-20 21:48:00,
2013-12-20 16:53:00,48.5,34.0,29.96,SW,229,3.0,10.0,57,-99.99,,,-99.99,JWX,2013-12-20 21:53:00,
2013-12-20 16:58:00,48.5,34.0,29.96,SW,218,3.0,10.0,57,-99.99,,,-99.99,JWX,2013-12-20 21:58:00,
2013-12-20 17:03:00,48.5,34.0,29.96,SW,218,4.0,8.0,57,-99.99,,,-99.99,JWX,2013-12-20 22:03:00,
2013-12-20 17:08:00,48.4,33.9,29.96,SW,215,3.0,9.0,57,-99.99,,,-99.99,JWX,2013-12-20 22:08:00,
2013-12-20 17:13:00,48.4,33.9,29.96,SW,214,0.0,7.0,57,-99.99,,,-99.99,JWX,2013-12-20 22:13:00,
2013-12-20 17:18:00,-999.0,-99.9,-100.00,North,0,0.0,0.0,-999,-99.99,,,-99.99,JWX,2013-12-20 22:18:00,
2013-12-20 17:23:00,-999.0,-99.9,-100.00,North,0,0.0,0.0,-999,-99.99,,,-99.99,JWX,2013-12-20 22:23:00,
2013-12-20 17:28:00,-999.0,-99.9,-100.00,North,0,0.0,0.0,-999,-99.99,,,-99.99,JWX,2013-12-20 22:28:00,
2013-12-20 17:33:00,-999.0,-99.9,-100.00,North,0,0.0,0.0,-999,-99.99,,,-99.99,JWX,2013-12-20 22:33:00,
2013-12-20 17:38:00,-999.0,-99.9,-100.00,North,0,0.0,0.0,-999,-99.99,,,-99.99,JWX,2013-12-20 22:38:00,
2013-12-20 17:43:00,-999.0,-99.9,-100.00,North,0,0.0,0.0,-999,-99.99,,,-99.99,JWX,2013-12-20 22:43:00,
2013-12-20 17:48:00,-999.0,-99.9,-100.00,North,0,0.0,0.0,-999,-99.99,,,-99.99,JWX,2013-12-20 22:48:00,
2013-12-20 17:53:00,-999.0,-99.9,-100.00,North,0,0.0,0.0,-999,-99.99,,,-99.99,JWX,2013-12-20 22:53:00,
2013-12-20 17:58:00,-999.0,-99.9,-100.00,North,0,0.0,0.0,-999,-99.99,,,-99.99,JWX,2013-12-20 22:58:00,
2013-12-20 18:03:00,-999.0,-99.9,-100.00,North,0,0.0,0.0,-999,-99.99,,,-99.99,JWX,2013-12-20 23:03:00,
2013-12-20 18:13:00,-999.0,-99.9,-100.00,North,0,0.0,0.0,-999,-99.99,,,-99.99,JWX,2013-12-20 23:13:00,
2013-12-20 18:18:00,-999.0,-99.9,-100.00,North,0,0.0,0.0,-999,-99.99,,,-99.99,JWX,2013-12-20 23:18:00,
2013-12-20 18:23:00,-999.0,-99.9,-100.00,North,0,0.0,0.0,-999,-99.99,,,-99.99,JWX,2013-12-20 23:23:00,
2013-12-20 18:28:00,-999.0,-99.9,-100.00,North,0,0.0,0.0,-999,-99.99,,,-99.99,JWX,2013-12-20 23:28:00,
2013-12-20 18:33:00,-999.0,-99.9,-100.00,North,0,0.0,0.0,-999,-99.99,,,-99.99,JWX,2013-12-20 23:33:00,
2013-12-20 18:38:00,-999.0,-99.9,-100.00,North,0,0.0,0.0,-999,-99.99,,,-99.99,JWX,2013-12-20 23:38:00,
2013-12-20 18:43:00,-999.0,-99.9,-100.00,North,0,0.0,0.0,-999,-99.99,,,-99.99,JWX,2013-12-20 23:43:00,
2013-12-20 18:48:00,-999.0,-99.9,-100.00,North,0,0.0,0.0,-999,-99.99,,,-99.99,JWX,2013-12-20 23:48:00,
2013-12-20 18:53:00,-999.0,-99.9,-100.00,North,0,0.0,0.0,-999,-99.99,,,-99.99,JWX,2013-12-20 23:53:00,
2013-12-20 18:58:00,-999.0,-99.9,-100.00,North,0,0.0,0.0,-999,-99.99,,,-99.99,JWX,2013-12-20 23:58:00,
2013-12-20 19:03:00,-999.0,-99.9,-100.00,North,0,0.0,0.0,-999,-99.99,,,-99.99,JWX,2013-12-21 00:03:00,
2013-12-20 19:08:00,-999.0,-99.9,-100.00,North,0,0.0,0.0,-999,-99.99,,,-99.99,JWX,2013-12-21 00:08:00,
2013-12-20 19:13:00,-999.0,-99.9,-100.00,North,0,0.0,0.0,-999,-99.99,,,-99.99,JWX,2013-12-21 00:13:00,
2013-12-20 19:18:00,-999.0,-99.9,-100.00,North,0,0.0,0.0,-999,-99.99,,,-99.99,JWX,2013-12-21 00:18:00,
2013-12-20 19:23:00,-999.0,-99.9,-100.00,North,0,0.0,0.0,-999,-99.99,,,-99.99,JWX,2013-12-21 00:23:00,
2013-12-20 19:28:00,-999.0,-99.9,-100.00,North,0,0.0,0.0,-999,-99.99,,,-99.99,JWX,2013-12-21 00:28:00,
2013-12-20 19:33:00,-999.0,-99.9,-100.00,North,0,0.0,0.0,-999,-99.99,,,-99.99,JWX,2013-12-21 00:33:00,
2013-12-20 19:38:00,-999.0,-99.9,-100.00,North,0,0.0,0.0,-999,-99.99,,,-99.99,JWX,2013-12-21 00:38:00,
2013-12-20 19:43:00,-999.0,-99.9,-100.00,North,0,0.0,0.0,-999,-99.99,,,-99.99,JWX,2013-12-21 00:43:00,
2013-12-20 19:48:00,-999.0,-99.9,-100.00,North,0,0.0,0.0,-999,-99.99,,,-99.99,JWX,2013-12-21 00:48:00,
2013-12-20 19:53:00,-999.0,-99.9,-100.00,North,0,0.0,0.0,-999,-99.99,,,-99.99,JWX,2013-12-21 00:53:00,
2013-12-20 19:58:00,-999.0,-99.9,-100.00,North,0,0.0,0.0,-999,-99.99,,,-99.99,JWX,2013-12-21 00:58:00,
2013-12-20 20:03:00,-999.0,-99.9,-100.00,North,0,0.0,0.0,-999,-99.99,,,-99.99,JWX,2013-12-21 01:03:00,
2013-12-20 20:08:00,-999.0,-99.9,-100.00,North,0,0.0,0.0,-999,-99.99,,,-99.99,JWX,2013-12-21 01:08:00,
2013-12-20 20:13:00,-999.0,-99.9,-100.00,North,0,0.0,0.0,-999,-99.99,,,-99.99,JWX,2013-12-21 01:13:00,
2013-12-20 20:18:00,-999.0,-99.9,-100.00,North,0,0.0,0.0,-999,-99.99,,,-99.99,JWX,2013-12-21 01:18:00,
2013-12-20 20:23:00,-999.0,-99.9,-100.00,North,0,0.0,0.0,-999,-99.99,,,-99.99,JWX,2013-12-21 01:23:00,
2013-12-20 20:28:00,-999.0,-99.9,-100.00,North,0,0.0,0.0,-999,-99.99,,,-99.99,JWX,2013-12-21 01:28:00,
2013-12-20 20:33:00,-999.0,-99.9,-100.00,North,0,0.0,0.0,-999,-99.99,,,-99.99,JWX,2013-12-21 01:33:00,
2013-12-20 20:38:00,-999.0,-99.9,-100.00,North,0,0.0,0.0,-999,-99.99,,,-99.99,JWX,2013-12-21 01:38:00,
2013-12-20 20:43:00,-999.0,-99.9,-100.00,North,0,0.0,0.0,-999,-99.99,,,-99.99,JWX,2013-12-21 01:43:00,
2013-12-20 20:48:00,-999.0,-99.9,-100.00,North,0,0.0,0.0,-999,-99.99,,,-99.99,JWX,2013-12-21 01:48:00,
2013-12-20 20:53:00,-999.0,-99.9,-100.00,North,0,0.0,0.0,-999,-99.99,,,-99.99,JWX,2013-12-21 01:53:00,
2013-12-20 20:58:00,-999.0,-99.9,-100.00,North,0,0.0,0.0,-999,-99.99,,,-99.99,JWX,2013-12-21 01:58:00,
2013-12-20 21:03:00,-999.0,-99.9,-100.00,North,0,0.0,0.0,-999,-99.99,,,-99.99,JWX,2013-12-21 02:03:00,
2013-12-20 21:08:00,-999.0,-99.9,-100.00,North,0,0.0,0.0,-999,-99.99,,,-99.99,JWX,2013-12-21 02:08:00,
2013-12-20 21:13:00,-999.0,-99.9,-100.00,North,0,0.0,0.0,-999,-99.99,,,-99.99,JWX,2013-12-21 02:13:00,
2013-12-20 21:18:00,-999.0,-99.9,-100.00,North,0,0.0,0.0,-999,-99.99,,,-99.99,JWX,2013-12-21 02:18:00,
2013-12-20 21:23:00,-999.0,-99.9,-100.00,North,0,0.0,0.0,-999,-99.99,,,-99.99,JWX,2013-12-21 02:23:00,
2013-12-20 21:28:00,-999.0,-99.9,-100.00,North,0,0.0,0.0,-999,-99.99,,,-99.99,JWX,2013-12-21 02:28:00,
2013-12-20 21:33:00,-999.0,-99.9,-100.00,North,0,0.0,0.0,-999,-99.99,,,-99.99,JWX,2013-12-21 02:33:00,
2013-12-20 21:38:00,-999.0,-99.9,-100.00,North,0,0.0,0.0,-999,-99.99,,,-99.99,JWX,2013-12-21 02:38:00,
2013-12-20 21:43:00,-999.0,-99.9,-100.00,North,0,0.0,0.0,-999,-99.99,,,-99.99,JWX,2013-12-21 02:43:00,
2013-12-20 21:48:00,-999.0,-99.9,-100.00,North,0,0.0,0.0,-999,-99.99,,,-99.99,JWX,2013-12-21 02:48:00,
2013-12-20 21:53:00,-999.0,-99.9,-100.00,North,0,0.0,0.0,-999,-99.99,,,-99.99,JWX,2013-12-21 02:53:00,
2013-12-20 21:58:00,-999.0,-99.9,-100.00,North,0,0.0,0.0,-999,-99.99,,,-99.99,JWX,2013-12-21 02:58:00,
2013-12-20 22:03:00,-999.0,-99.9,-100.00,North,0,0.0,0.0,-999,-99.99,,,-99.99,JWX,2013-12-21 03:03:00,
2013-12-20 22:08:00,-999.0,-99.9,-100.00,North,0,0.0,0.0,-999,-99.99,,,-99.99,JWX,2013-12-21 03:08:00,
2013-12-20 22:13:00,-999.0,-99.9,-100.00,North,0,0.0,0.0,-999,-99.99,,,-99.99,JWX,2013-12-21 03:13:00,
2013-12-20 22:18:00,-999.0,-99.9,-100.00,North,0,0.0,0.0,-999,-99.99,,,-99.99,JWX,2013-12-21 03:18:00,
2013-12-20 22:23:00,-999.0,-99.9,-100.00,North,0,0.0,0.0,-999,-99.99,,,-99.99,JWX,2013-12-21 03:23:00,
2013-12-20 22:28:00,-999.0,-99.9,-100.00,North,0,0.0,0.0,-999,-99.99,,,-99.99,JWX,2013-12-21 03:28:00,
2013-12-20 22:33:00,-999.0,-99.9,-100.00,North,0,0.0,0.0,-999,-99.99,,,-99.99,JWX,2013-12-21 03:33:00,
2013-12-20 22:38:00,-999.0,-99.9,-100.00,North,0,0.0,0.0,-999,-99.99,,,-99.99,JWX,2013-12-21 03:38:00,
2013-12-20 22:43:00,-999.0,-99.9,-100.00,North,0,0.0,0.0,-999,-99.99,,,-99.99,JWX,2013-12-21 03:43:00,
2013-12-20 22:48:00,-999.0,-99.9,-100.00,North,0,0.0,0.0,-999,-99.99,,,-99.99,JWX,2013-12-21 03:48:00,
2013-12-20 22:53:00,-999.0,-99.9,-100.00,North,0,0.0,0.0,-999,-99.99,,,-99.99,JWX,2013-12-21 03:53:00,
2013-12-20 22:58:00,-999.0,-99.9,-100.00,North,0,0.0,0.0,-999,-99.99,,,-99.99,JWX,2013-12-21 03:58:00,
2013-12-20 23:03:00,-999.0,-99.9,-100.00,North,0,0.0,0.0,-999,-99.99,,,-99.99,JWX,2013-12-21 04:03:00,
2013-12-20 23:08:00,-999.0,-99.9,-100.00,North,0,0.0,0.0,-999,-99.99,,,-99.99,JWX,2013-12-21 04:08:00,
2013-12-20 23:13:00,-999.0,-99.9,-100.00,North,0,0.0,0.0,-999,-99.99,,,-99.99,JWX,2013-12-21 04:13:00,
2013-12-20 23:18:00,-999.0,-99.9,-100.00,North,0,0.0,0.0,-999,-99.99,,,-99.99,JWX,2013-12-21 04:18:00,
2013-12-20 23:23:00,-999.0,-99.9,-100.00,North,0,0.0,0.0,-999,-99.99,,,-99.99,JWX,2013-12-21 04:23:00,
2013-12-20 23:28:00,-999.0,-99.9,-100.00,North,0,0.0,0.0,-999,-99.99,,,-99.99,JWX,2013-12-21 04:28:00,
2013-12-20 23:33:00,-999.0,-99.9,-100.00,North,0,0.0,0.0,-999,-99.99,,,-99.99,JWX,2013-12-21 04:33:00,
2013-12-20 23:38:00,-999.0,-99.9,-100.00,North,0,0.0,0.0,-999,-99.99,,,-99.99,JWX,2013-12-21 04:38:00,
2013-12-20 23:43:00,-999.0,-99.9,-100.00,North,0,0.0,0.0,-999,-99.99,,,-99.99,JWX,2013-12-21 04:43:00,
2013-12-20 23:48:00,-999.0,-99.9,-100.00,North,0,0.0,0.0,-999,-99.99,,,-99.99,JWX,2013-12-21 04:48:00,
2013-12-20 23:53:00,-999.0,-99.9,-100.00,North,0,0.0,0.0,-999,-99.99,,,-99.99,JWX,2013-12-21 04:53:00,
2013-12-20 23:58:00,-999.0,-99.9,-100.00,North,0,0.0,0.0,-999,-99.99,,,-99.99,JWX,2013-12-21 04:58:00,